createdAt,value
2023-05-01T00:00:05.694Z,101539.41
2023-05-01T00:02:07.549Z,101518.38
2023-05-01T00:04:09.177Z,101540.84
2023-05-01T00:06:11.240Z,101535.41
2023-05-01T00:08:12.986Z,101537.25
2023-05-01T00:10:14.604Z,101518.03
2023-05-01T00:12:16.094Z,101538.91
2023-05-01T00:14:17.533Z,101534.28
2023-05-01T00:16:19.123Z,101533.38
2023-05-01T00:18:20.750Z,101554.59
2023-05-01T00:20:22.286Z,101529.16
2023-05-01T00:22:23.879Z,101540.69
2023-05-01T00:24:25.366Z,101540.13
2023-05-01T00:26:26.838Z,101543.16
2023-05-01T00:28:28.330Z,101526.81
2023-05-01T00:30:29.898Z,101535.28
2023-05-01T00:32:31.321Z,101537.75
2023-05-01T00:34:32.914Z,101531.75
2023-05-01T00:36:34.415Z,101543.00
2023-05-01T00:38:35.805Z,101535.19
2023-05-01T00:40:44.196Z,101532.28
2023-05-01T00:42:45.659Z,101544.50
2023-05-01T00:44:48.304Z,101547.50
2023-05-01T00:46:50.085Z,101533.19
2023-05-01T00:48:52.675Z,101513.38
2023-05-01T00:50:54.210Z,101509.22
2023-05-01T00:52:55.860Z,101534.31
2023-05-01T00:54:58.983Z,101529.31
2023-05-01T00:57:00.491Z,101533.16
2023-05-01T00:59:02.050Z,101535.97
2023-05-01T01:01:04.250Z,101535.78
2023-05-01T01:03:05.843Z,101539.34
2023-05-01T01:05:07.627Z,101539.72
2023-05-01T01:08:09.761Z,101526.13
2023-05-01T01:10:30.693Z,101539.69
2023-05-01T01:12:39.318Z,101529.09
2023-05-01T01:14:50.841Z,101539.88
2023-05-01T01:17:00.317Z,101544.97
2023-05-01T01:19:09.302Z,101536.31
2023-05-01T01:21:35.249Z,101541.56
2023-05-01T01:23:52.031Z,101537.88
2023-05-01T01:26:30.716Z,101545.25
2023-05-01T01:29:02.736Z,101545.00
2023-05-01T01:31:32.571Z,101549.03
2023-05-01T01:33:59.625Z,101553.44
2023-05-01T01:36:08.189Z,101545.06
2023-05-01T01:38:17.122Z,101544.00
2023-05-01T01:40:29.030Z,101545.00
2023-05-01T01:42:37.698Z,101520.25
2023-05-01T01:44:43.321Z,101543.94
2023-05-01T01:46:45.759Z,101551.09
2023-05-01T01:48:50.363Z,101519.91
2023-05-01T01:50:54.661Z,101551.25
2023-05-01T01:52:58.893Z,101547.78
2023-05-01T01:55:10.669Z,101524.69
2023-05-01T01:57:14.433Z,101542.53
2023-05-01T01:59:16.533Z,101541.75
2023-05-01T02:01:19.388Z,101515.28
2023-05-01T02:03:22.697Z,101535.41
2023-05-01T02:05:26.239Z,101521.88
2023-05-01T02:07:29.653Z,101535.19
2023-05-01T02:09:31.730Z,101534.47
2023-05-01T02:11:36.145Z,101528.28
2023-05-01T02:13:39.106Z,101512.50
2023-05-01T02:15:41.207Z,101524.41
2023-05-01T02:17:42.934Z,101531.38
2023-05-01T02:19:45.371Z,101531.97
2023-05-01T02:21:48.446Z,101532.72
2023-05-01T02:23:49.957Z,101531.69
2023-05-01T02:25:53.554Z,101531.22
2023-05-01T02:28:00.587Z,101525.47
2023-05-01T02:30:01.990Z,101506.38
2023-05-01T02:32:03.748Z,101523.16
2023-05-01T02:34:05.347Z,101522.53
2023-05-01T02:36:06.771Z,101525.03
2023-05-01T02:38:08.359Z,101520.94
2023-05-01T02:40:11.900Z,101526.13
2023-05-01T02:42:17.673Z,101510.88
2023-05-01T02:44:20.343Z,101529.16
2023-05-01T02:46:25.226Z,101524.13
2023-05-01T02:48:28.180Z,101516.91
2023-05-01T02:50:30.102Z,101509.28
2023-05-01T02:52:32.046Z,101514.75
2023-05-01T02:54:34.190Z,101521.59
2023-05-01T02:56:36.290Z,101517.22
2023-05-01T02:58:38.262Z,101531.00
2023-05-01T03:00:39.654Z,101529.56
2023-05-01T03:02:41.467Z,101527.00
2023-05-01T03:04:43.403Z,101527.94
2023-05-01T03:06:45.036Z,101515.84
2023-05-01T03:08:46.749Z,101522.78
2023-05-01T03:10:48.432Z,101526.16
2023-05-01T03:12:49.873Z,101527.00
2023-05-01T03:14:51.353Z,101525.31
2023-05-01T03:16:52.862Z,101494.03
2023-05-01T03:18:54.319Z,101527.31
2023-05-01T03:20:56.377Z,101529.09
2023-05-01T03:22:57.922Z,101505.06
2023-05-01T03:24:59.628Z,101528.16
2023-05-01T03:27:01.187Z,101535.88
2023-05-01T03:29:02.890Z,101528.25
2023-05-01T03:31:04.489Z,101527.16
2023-05-01T03:33:06.017Z,101526.50
2023-05-01T03:35:08.199Z,101524.00
2023-05-01T03:37:09.626Z,101533.03
2023-05-01T03:39:11.172Z,101515.06
2023-05-01T03:41:12.826Z,101526.50
2023-05-01T03:43:14.296Z,101520.47
2023-05-01T03:45:15.961Z,101526.00
2023-05-01T03:47:17.518Z,101533.38
2023-05-01T03:49:18.958Z,101532.25
2023-05-01T03:51:20.548Z,101528.44
2023-05-01T03:53:22.012Z,101500.16
2023-05-01T03:55:23.448Z,101526.63
2023-05-01T03:57:25.107Z,101526.19
2023-05-01T03:59:26.683Z,101500.09
2023-05-01T04:01:28.116Z,101523.25
2023-05-01T04:03:29.809Z,101530.63
2023-05-01T04:05:31.472Z,101517.94
2023-05-01T04:07:32.913Z,101512.84
2023-05-01T04:09:34.437Z,101483.53
2023-05-01T04:11:36.034Z,101499.28
2023-05-01T04:13:37.438Z,101521.31
2023-05-01T04:15:39.154Z,101523.13
2023-05-01T04:17:41.169Z,101504.75
2023-05-01T04:19:42.581Z,101532.66
2023-05-01T04:21:44.138Z,101528.69
2023-05-01T04:23:45.598Z,101506.06
2023-05-01T04:25:47.026Z,101494.31
2023-05-01T04:27:48.626Z,101516.88
2023-05-01T04:29:50.194Z,101524.88
2023-05-01T04:31:51.629Z,101515.88
2023-05-01T04:33:53.216Z,101516.13
2023-05-01T04:35:54.803Z,101522.16
2023-05-01T04:37:56.196Z,101505.31
2023-05-01T04:39:58.052Z,101520.47
2023-05-01T04:41:59.819Z,101514.53
2023-05-01T04:44:01.218Z,101519.38
2023-05-01T04:46:05.824Z,101526.38
2023-05-01T04:48:07.608Z,101487.44
2023-05-01T04:50:09.623Z,101504.34
2023-05-01T04:52:11.135Z,101512.56
2023-05-01T04:54:12.649Z,101507.84
2023-05-01T04:56:14.088Z,101517.78
2023-05-01T04:58:15.670Z,101522.31
2023-05-01T05:00:17.354Z,101501.81
2023-05-01T05:02:18.774Z,101511.75
2023-05-01T05:04:20.366Z,101520.22
2023-05-01T05:06:22.114Z,101517.47
2023-05-01T05:08:23.559Z,101519.66
2023-05-01T05:10:25.103Z,101521.91
2023-05-01T05:12:26.577Z,101519.88
2023-05-01T05:14:27.979Z,101521.09
2023-05-01T05:16:29.528Z,101509.03
2023-05-01T05:18:30.987Z,101515.72
2023-05-01T05:20:32.413Z,101507.88
2023-05-01T05:22:36.362Z,101523.28
2023-05-01T05:24:38.062Z,101496.91
2023-05-01T05:26:39.680Z,101524.47
2023-05-01T05:28:41.202Z,101512.59
2023-05-01T05:30:42.826Z,101512.44
2023-05-01T05:32:44.299Z,101529.59
2023-05-01T05:34:45.931Z,101527.84
2023-05-01T05:36:47.420Z,101525.50
2023-05-01T05:38:48.813Z,101518.22
2023-05-01T05:40:50.356Z,101506.31
2023-05-01T05:42:52.019Z,101519.22
2023-05-01T05:44:53.408Z,101498.50
2023-05-01T05:46:54.927Z,101506.19
2023-05-01T05:48:56.493Z,101522.16
2023-05-01T05:50:57.885Z,101514.03
2023-05-01T05:52:59.515Z,101517.13
2023-05-01T05:55:01.123Z,101509.78
2023-05-01T05:57:02.886Z,101516.00
2023-05-01T05:59:04.423Z,101520.09
2023-05-01T06:01:05.961Z,101513.06
2023-05-01T06:03:07.426Z,101514.78
2023-05-01T06:05:09.396Z,101501.53
2023-05-01T06:07:10.817Z,101512.81
2023-05-01T06:09:12.207Z,101512.41
2023-05-01T06:11:13.665Z,101501.88
2023-05-01T06:13:15.196Z,101510.41
2023-05-01T06:15:16.584Z,101506.41
2023-05-01T06:17:18.203Z,101515.16
2023-05-01T06:19:19.864Z,101506.06
2023-05-01T06:21:21.290Z,101508.97
2023-05-01T06:23:22.858Z,101508.50
2023-05-01T06:25:24.452Z,101521.84
2023-05-01T06:27:25.842Z,101516.16
2023-05-01T06:29:27.336Z,101501.75
2023-05-01T06:31:28.867Z,101507.47
2023-05-01T06:33:30.309Z,101516.94
2023-05-01T06:35:31.916Z,101509.63
2023-05-01T06:37:33.423Z,101509.41
2023-05-01T06:39:34.816Z,101506.56
2023-05-01T06:41:36.351Z,101510.69
2023-05-01T06:43:37.742Z,101506.28
2023-05-01T06:45:39.160Z,101490.56
2023-05-01T06:47:40.718Z,101506.44
2023-05-01T06:49:42.482Z,101487.47
2023-05-01T06:51:43.885Z,101485.00
2023-05-01T06:53:45.421Z,101494.41
2023-05-01T06:55:46.869Z,101494.19
2023-05-01T06:57:48.288Z,101475.84
2023-05-01T06:59:49.789Z,101494.34
2023-05-01T07:01:51.279Z,101492.75
2023-05-01T07:03:52.717Z,101487.31
2023-05-01T07:05:55.000Z,101484.19
2023-05-01T07:08:01.195Z,101488.22
2023-05-01T07:10:03.456Z,101481.44
2023-05-01T07:12:06.031Z,101465.06
2023-05-01T07:14:07.501Z,101481.47
2023-05-01T07:16:08.947Z,101481.28
2023-05-01T07:18:10.693Z,101479.41
2023-05-01T07:20:12.246Z,101476.47
2023-05-01T07:22:13.746Z,101468.53
2023-05-01T07:24:15.334Z,101479.25
2023-05-01T07:26:16.798Z,101472.97
2023-05-01T07:28:18.295Z,101479.34
2023-05-01T07:30:19.952Z,101468.69
2023-05-01T07:32:21.573Z,101473.81
2023-05-01T07:34:23.059Z,101471.25
2023-05-01T07:36:24.808Z,101461.97
2023-05-01T07:38:26.368Z,101474.59
2023-05-01T07:40:27.817Z,101473.53
2023-05-01T07:42:29.506Z,101471.38
2023-05-01T07:44:31.153Z,101474.31
2023-05-01T07:46:32.681Z,101481.31
2023-05-01T07:48:35.033Z,101471.25
2023-05-01T07:50:36.532Z,101468.78
2023-05-01T07:52:38.310Z,101466.59
2023-05-01T07:54:39.879Z,101449.91
2023-05-01T07:56:41.419Z,101470.59
2023-05-01T07:58:42.853Z,101456.94
2023-05-01T08:00:44.484Z,101465.56
2023-05-01T08:02:46.223Z,101461.31
2023-05-01T08:04:47.837Z,101457.38
2023-05-01T08:06:50.714Z,101449.97
2023-05-01T08:08:52.267Z,101446.44
2023-05-01T08:10:54.486Z,101454.09
2023-05-01T08:12:56.095Z,101456.38
2023-05-01T08:14:57.669Z,101464.34
2023-05-01T08:16:59.268Z,101448.25
2023-05-01T08:19:00.829Z,101452.66
2023-05-01T08:21:02.580Z,101439.75
2023-05-01T08:23:04.127Z,101461.44
2023-05-01T08:25:06.357Z,101460.06
2023-05-01T08:27:07.843Z,101454.31
2023-05-01T08:29:09.845Z,101444.56
2023-05-01T08:31:11.542Z,101453.06
2023-05-01T08:33:13.281Z,101447.03
2023-05-01T08:35:14.859Z,101456.47
2023-05-01T08:37:16.588Z,101462.22
2023-05-01T08:39:18.125Z,101441.06
2023-05-01T08:41:21.852Z,101455.97
2023-05-01T08:43:27.266Z,101458.13
2023-05-01T08:45:32.393Z,101453.56
2023-05-01T08:47:37.022Z,101449.50
2023-05-01T08:49:44.107Z,101428.13
2023-05-01T08:51:46.808Z,101424.78
2023-05-01T08:53:49.177Z,101440.19
2023-05-01T08:55:51.989Z,101435.44
2023-05-01T08:57:54.996Z,101439.31
2023-05-01T08:59:58.239Z,101430.44
2023-05-01T09:02:02.654Z,101437.53
2023-05-01T09:04:06.655Z,101438.69
2023-05-01T09:06:09.281Z,101399.09
2023-05-01T09:08:10.851Z,101432.84
2023-05-01T09:10:14.159Z,101434.53
2023-05-01T09:12:24.477Z,101430.44
2023-05-01T09:14:26.409Z,101423.97
2023-05-01T09:16:29.383Z,101427.81
2023-05-01T09:18:30.901Z,101418.75
2023-05-01T09:20:32.775Z,101417.72
2023-05-01T09:22:35.355Z,101427.91
2023-05-01T09:24:37.075Z,101430.56
2023-05-01T09:26:42.040Z,101424.06
2023-05-01T09:28:45.402Z,101419.53
2023-05-01T09:30:46.881Z,101424.94
2023-05-01T09:33:13.949Z,101416.59
2023-05-01T09:35:15.448Z,101397.41
2023-05-01T09:37:26.059Z,101418.84
2023-05-01T09:39:27.723Z,101410.91
2023-05-01T09:41:29.658Z,101411.16
2023-05-01T09:43:31.353Z,101409.19
2023-05-01T09:45:33.223Z,101404.91
2023-05-01T09:47:34.789Z,101388.16
2023-05-01T09:49:46.764Z,101398.13
2023-05-01T09:51:49.548Z,101406.97
2023-05-01T09:53:51.649Z,101402.00
2023-05-01T09:56:02.090Z,101401.41
2023-05-01T09:58:03.919Z,101398.59
2023-05-01T10:00:06.215Z,101391.69
2023-05-01T10:02:07.634Z,101386.09
2023-05-01T10:04:09.997Z,101381.09
2023-05-01T10:06:11.722Z,101395.69
2023-05-01T10:08:13.218Z,101391.84
2023-05-01T10:10:19.094Z,101379.31
2023-05-01T10:12:28.388Z,101376.94
2023-05-01T10:14:29.819Z,101374.22
2023-05-01T10:16:31.421Z,101367.75
2023-05-01T10:18:36.125Z,101373.38
2023-05-01T10:20:37.550Z,101355.59
2023-05-01T10:22:42.584Z,101368.19
2023-05-01T10:24:44.306Z,101347.44
2023-05-01T10:26:48.652Z,101365.59
2023-05-01T10:28:50.207Z,101360.25
2023-05-01T10:30:52.604Z,101358.22
2023-05-01T10:32:54.156Z,101354.22
2023-05-01T10:35:00.572Z,101350.94
2023-05-01T10:37:11.491Z,101348.78
2023-05-01T10:39:36.075Z,101347.56
2023-05-01T10:41:59.458Z,101343.50
2023-05-01T10:44:30.185Z,101344.25
2023-05-01T10:46:31.660Z,101330.84
2023-05-01T10:48:39.163Z,101339.59
2023-05-01T10:51:07.353Z,101340.00
2023-05-01T10:53:11.782Z,101328.34
2023-05-01T10:55:32.713Z,101331.69
2023-05-01T10:57:45.021Z,101322.50
2023-05-01T10:59:58.461Z,101328.97
2023-05-01T11:02:00.289Z,101323.88
2023-05-01T11:04:05.569Z,101320.53
2023-05-01T11:06:07.501Z,101317.66
2023-05-01T11:08:35.675Z,101311.66
2023-05-01T11:10:37.069Z,101309.44
2023-05-01T11:12:49.722Z,101312.63
2023-05-01T11:14:54.457Z,101314.03
2023-05-01T11:16:56.222Z,101308.34
2023-05-01T11:18:57.733Z,101295.00
2023-05-01T11:20:59.557Z,101308.94
2023-05-01T11:23:00.958Z,101309.28
2023-05-01T11:25:03.407Z,101297.88
2023-05-01T11:27:06.083Z,101302.81
2023-05-01T11:29:09.141Z,101310.38
2023-05-01T11:31:10.592Z,101305.50
2023-05-01T11:33:12.305Z,101265.63
2023-05-01T11:35:21.240Z,101293.25
2023-05-01T11:37:44.827Z,101299.63
2023-05-01T11:39:52.605Z,101292.06
2023-05-01T11:42:07.241Z,101290.75
2023-05-01T11:44:11.291Z,101290.63
2023-05-01T11:46:13.917Z,101280.13
2023-05-01T11:48:15.536Z,101274.72
2023-05-01T11:50:17.216Z,101274.00
2023-05-01T11:52:18.885Z,101265.78
2023-05-01T11:54:20.380Z,101266.03
2023-05-01T11:56:26.472Z,101267.31
2023-05-01T11:58:32.592Z,101270.94
2023-05-01T12:00:34.824Z,101255.09
2023-05-01T12:02:36.449Z,101249.34
2023-05-01T12:04:38.153Z,101250.28
2023-05-01T12:06:41.639Z,101258.06
2023-05-01T12:08:47.323Z,101247.59
2023-05-01T12:10:56.626Z,101255.22
2023-05-01T12:12:58.510Z,101228.63
2023-05-01T12:15:00.643Z,101232.06
2023-05-01T12:17:02.448Z,101236.25
2023-05-01T12:19:04.604Z,101246.22
2023-05-01T12:21:14.745Z,101239.09
2023-05-01T12:23:16.745Z,101241.41
2023-05-01T12:25:18.616Z,101231.50
2023-05-01T12:27:20.310Z,101228.63
2023-05-01T12:29:22.666Z,101233.56
2023-05-01T12:31:25.649Z,101215.66
2023-05-01T12:33:27.326Z,101224.69
2023-05-01T12:35:29.786Z,101209.78
2023-05-01T12:37:32.355Z,101218.44
2023-05-01T12:39:42.196Z,101221.50
2023-05-01T12:41:49.139Z,101214.91
2023-05-01T12:43:50.592Z,101200.16
2023-05-01T12:45:53.301Z,101199.19
2023-05-01T12:47:55.309Z,101202.88
2023-05-01T12:50:03.177Z,101186.25
2023-05-01T12:52:06.208Z,101203.69
2023-05-01T12:54:07.862Z,101197.53
2023-05-01T12:56:09.686Z,101185.63
2023-05-01T12:58:11.180Z,101201.03
2023-05-01T13:00:13.349Z,101189.03
2023-05-01T13:02:17.546Z,101196.88
2023-05-01T13:04:22.709Z,101161.00
2023-05-01T13:06:32.489Z,101176.00
2023-05-01T13:08:37.454Z,101183.69
2023-05-01T13:10:39.457Z,101178.47
2023-05-01T13:12:44.944Z,101189.97
2023-05-01T13:14:46.406Z,101169.19
2023-05-01T13:16:48.041Z,101168.88
2023-05-01T13:18:51.898Z,101180.53
2023-05-01T13:20:53.370Z,101170.63
2023-05-01T13:22:54.807Z,101181.00
2023-05-01T13:24:57.116Z,101161.31
2023-05-01T13:26:58.520Z,101168.31
2023-05-01T13:29:00.793Z,101165.78
2023-05-01T13:31:02.550Z,101148.84
2023-05-01T13:33:04.221Z,101126.94
2023-05-01T13:35:07.999Z,101150.31
2023-05-01T13:37:11.446Z,101149.78
2023-05-01T13:39:21.016Z,101147.03
2023-05-01T13:41:24.731Z,101144.16
2023-05-01T13:43:26.405Z,101141.66
2023-05-01T13:45:28.736Z,101135.16
2023-05-01T13:47:30.204Z,101115.78
2023-05-01T13:49:31.915Z,101126.59
2023-05-01T13:51:33.609Z,101110.38
2023-05-01T13:53:35.602Z,101105.13
2023-05-01T13:55:40.099Z,101115.78
2023-05-01T13:57:41.716Z,101116.31
2023-05-01T13:59:46.088Z,101097.81
2023-05-01T14:01:47.784Z,101110.50
2023-05-01T14:03:49.917Z,101113.38
2023-05-01T14:05:51.520Z,101100.59
2023-05-01T14:07:58.580Z,101097.09
2023-05-01T14:10:00.149Z,101093.53
2023-05-01T14:12:01.679Z,101096.03
2023-05-01T14:14:03.365Z,101095.25
2023-05-01T14:16:08.247Z,101091.16
2023-05-01T14:18:15.213Z,101093.22
2023-05-01T14:20:16.968Z,101085.66
2023-05-01T14:22:18.349Z,101078.41
2023-05-01T14:24:19.730Z,101078.00
2023-05-01T14:26:22.195Z,101068.81
2023-05-01T14:28:23.596Z,101085.03
2023-05-01T14:30:32.096Z,101080.75
2023-05-01T14:32:40.247Z,101054.88
2023-05-01T14:34:43.041Z,101070.66
2023-05-01T14:36:44.496Z,101063.31
2023-05-01T14:38:46.072Z,101067.22
2023-05-01T14:40:48.272Z,101071.16
2023-05-01T14:42:50.231Z,101075.53
2023-05-01T14:44:51.704Z,101069.72
2023-05-01T14:46:53.307Z,101069.75
2023-05-01T14:48:54.783Z,101059.75
2023-05-01T14:50:56.264Z,101045.94
2023-05-01T14:52:59.360Z,101067.81
2023-05-01T14:55:01.093Z,101056.28
2023-05-01T14:57:02.727Z,101033.13
2023-05-01T14:59:04.252Z,101043.75
2023-05-01T15:01:05.761Z,101045.84
2023-05-01T15:03:07.285Z,101051.31
2023-05-01T15:05:09.150Z,101046.34
2023-05-01T15:07:10.564Z,101041.41
2023-05-01T15:09:11.961Z,101048.16
2023-05-01T15:11:13.978Z,101044.31
2023-05-01T15:13:15.430Z,101038.31
2023-05-01T15:15:17.149Z,101034.75
2023-05-01T15:17:18.653Z,101040.66
2023-05-01T15:19:20.143Z,101031.81
2023-05-01T15:21:21.782Z,101023.63
2023-05-01T15:23:23.265Z,101023.38
2023-05-01T15:25:24.696Z,101024.47
2023-05-01T15:27:26.237Z,101022.44
2023-05-01T15:29:27.838Z,101013.47
2023-05-01T15:31:29.296Z,101011.78
2023-05-01T15:33:30.881Z,101016.53
2023-05-01T15:35:32.327Z,100997.94
2023-05-01T15:37:33.720Z,101021.91
2023-05-01T15:39:35.231Z,100995.91
2023-05-01T15:41:36.872Z,101012.75
2023-05-01T15:43:38.269Z,101009.28
2023-05-01T15:45:39.842Z,101015.91
2023-05-01T15:47:41.497Z,101010.22
2023-05-01T15:49:43.036Z,101016.44
2023-05-01T15:51:44.667Z,100994.47
2023-05-01T15:53:46.330Z,101009.00
2023-05-01T15:55:47.712Z,101006.81
2023-05-01T15:57:49.258Z,100994.63
2023-05-01T15:59:50.706Z,101004.25
2023-05-01T16:01:53.873Z,100991.06
2023-05-01T16:03:55.606Z,101000.94
2023-05-01T16:05:57.372Z,100992.59
2023-05-01T16:08:01.000Z,100985.44
2023-05-01T16:10:02.574Z,100979.75
2023-05-01T16:12:04.970Z,100981.91
2023-05-01T16:14:10.034Z,100978.63
2023-05-01T16:16:12.592Z,100976.97
2023-05-01T16:18:19.188Z,100982.53
2023-05-01T16:20:20.881Z,100977.81
2023-05-01T16:22:22.450Z,100978.53
2023-05-01T16:24:24.081Z,100977.91
2023-05-01T16:26:28.319Z,100980.91
2023-05-01T16:28:29.901Z,100973.50
2023-05-01T16:30:31.396Z,100976.66
2023-05-01T16:32:34.865Z,100967.59
2023-05-01T16:34:38.453Z,100972.47
2023-05-01T16:36:42.916Z,100971.59
2023-05-01T16:38:44.986Z,100967.16
2023-05-01T16:40:47.528Z,100967.28
2023-05-01T16:42:52.567Z,100968.38
2023-05-01T16:44:53.969Z,100947.19
2023-05-01T16:47:00.195Z,100956.53
2023-05-01T16:49:01.606Z,100958.06
2023-05-01T16:51:06.077Z,100962.53
2023-05-01T16:53:07.504Z,100945.81
2023-05-01T16:55:09.133Z,100960.00
2023-05-01T16:57:10.536Z,100953.78
2023-05-01T16:59:11.934Z,100956.16
2023-05-01T17:01:13.451Z,100944.59
2023-05-01T17:03:15.076Z,100910.59
2023-05-01T17:05:16.716Z,100951.94
2023-05-01T17:07:18.108Z,100946.59
2023-05-01T17:09:19.545Z,100940.63
2023-05-01T17:11:21.487Z,100941.00
2023-05-01T17:13:23.039Z,100939.84
2023-05-01T17:15:24.454Z,100942.94
2023-05-01T17:17:26.015Z,100933.94
2023-05-01T17:19:27.555Z,100927.13
2023-05-01T17:21:28.984Z,100939.00
2023-05-01T17:23:30.553Z,100943.25
2023-05-01T17:25:32.485Z,100936.81
2023-05-01T17:27:33.881Z,100919.81
2023-05-01T17:29:35.474Z,100929.34
2023-05-01T17:31:37.082Z,100926.59
2023-05-01T17:33:38.559Z,100926.88
2023-05-01T17:35:40.134Z,100927.88
2023-05-01T17:37:41.862Z,100904.34
2023-05-01T17:39:43.266Z,100912.75
2023-05-01T17:41:44.885Z,100918.84
2023-05-01T17:43:46.307Z,100912.44
2023-05-01T17:45:48.046Z,100924.47
2023-05-01T17:47:49.772Z,100899.72
2023-05-01T17:49:51.208Z,100919.94
2023-05-01T17:51:52.591Z,100923.34
2023-05-01T17:53:53.991Z,100900.88
2023-05-01T17:55:55.399Z,100904.16
2023-05-01T17:57:56.786Z,100912.56
2023-05-01T17:59:59.159Z,100910.94
2023-05-01T18:02:00.840Z,100903.31
2023-05-01T18:04:02.399Z,100910.16
2023-05-01T18:06:04.154Z,100906.69
2023-05-01T18:08:05.619Z,100897.06
2023-05-01T18:10:07.813Z,100872.75
2023-05-01T18:12:09.307Z,100900.25
2023-05-01T18:14:10.706Z,100905.47
2023-05-01T18:16:12.132Z,100900.66
2023-05-01T18:18:13.932Z,100903.81
2023-05-01T18:20:15.549Z,100894.22
2023-05-01T18:22:17.120Z,100910.78
2023-05-01T18:24:18.602Z,100910.13
2023-05-01T18:26:20.011Z,100909.97
2023-05-01T18:28:21.871Z,100876.84
2023-05-01T18:30:23.343Z,100908.00
2023-05-01T18:32:32.970Z,100894.69
2023-05-01T18:34:41.027Z,100907.06
2023-05-01T18:36:42.588Z,100893.88
2023-05-01T18:38:44.136Z,100915.56
2023-05-01T18:40:45.531Z,100920.06
2023-05-01T18:42:47.059Z,100921.69
2023-05-01T18:44:48.672Z,100920.19
2023-05-01T18:46:50.150Z,100912.19
2023-05-01T18:48:51.907Z,100921.69
2023-05-01T18:51:07.145Z,100923.38
2023-05-01T18:53:09.651Z,100914.84
2023-05-01T18:55:11.347Z,100923.84
2023-05-01T18:57:13.060Z,100917.50
2023-05-01T18:59:14.533Z,100907.78
2023-05-01T19:01:16.254Z,100924.78
2023-05-01T19:03:17.911Z,100898.75
2023-05-01T19:05:19.659Z,100926.94
2023-05-01T19:07:21.225Z,100923.41
2023-05-01T19:09:22.631Z,100920.88
2023-05-01T19:11:24.074Z,100923.66
2023-05-01T19:13:25.487Z,100923.22
2023-05-01T19:15:27.034Z,100922.03
2023-05-01T19:17:28.483Z,100907.59
2023-05-01T19:19:30.012Z,100904.38
2023-05-01T19:21:31.623Z,100905.53
2023-05-01T19:23:33.085Z,100898.97
2023-05-01T19:25:34.491Z,100888.06
2023-05-01T19:27:35.875Z,100907.25
2023-05-01T19:29:37.290Z,100899.41
2023-05-01T19:31:38.853Z,100904.69
2023-05-01T19:33:41.116Z,100907.66
2023-05-01T19:35:43.097Z,100905.91
2023-05-01T19:37:44.603Z,100908.81
2023-05-01T19:39:46.127Z,100892.09
2023-05-01T19:41:47.590Z,100903.50
2023-05-01T19:43:49.233Z,100903.00
2023-05-01T19:45:50.765Z,100902.94
2023-05-01T19:47:52.410Z,100894.38
2023-05-01T19:49:54.048Z,100895.81
2023-05-01T19:51:55.451Z,100895.50
2023-05-01T19:53:56.886Z,100881.16
2023-05-01T19:55:58.396Z,100888.81
2023-05-01T19:58:00.067Z,100889.34
2023-05-01T20:00:01.745Z,100885.84
2023-05-01T20:02:04.047Z,100889.69
2023-05-01T20:04:05.683Z,100881.38
2023-05-01T20:06:07.139Z,100885.22
2023-05-01T20:08:08.569Z,100882.34
2023-05-01T20:10:10.330Z,100852.56
2023-05-01T20:12:11.761Z,100877.66
2023-05-01T20:14:13.383Z,100878.78
2023-05-01T20:16:14.957Z,100863.25
2023-05-01T20:18:16.399Z,100857.88
2023-05-01T20:20:18.080Z,100875.66
2023-05-01T20:22:19.539Z,100865.09
2023-05-01T20:24:20.920Z,100874.06
2023-05-01T20:26:22.409Z,100878.59
2023-05-01T20:28:24.345Z,100879.50
2023-05-01T20:30:25.772Z,100874.41
2023-05-01T20:32:27.307Z,100864.59
2023-05-01T20:34:28.909Z,100871.03
2023-05-01T20:36:30.320Z,100867.69
2023-05-01T20:38:31.989Z,100880.41
2023-05-01T20:40:33.550Z,100860.56
2023-05-01T20:42:34.963Z,100870.09
2023-05-01T20:44:36.454Z,100873.19
2023-05-01T20:46:38.023Z,100871.28
2023-05-01T20:48:39.444Z,100871.09
2023-05-01T20:50:40.936Z,100868.44
2023-05-01T20:52:42.509Z,100852.16
2023-05-01T20:54:43.898Z,100864.22
2023-05-01T20:56:45.388Z,100866.28
2023-05-01T20:58:46.936Z,100850.56
2023-05-01T21:00:48.322Z,100863.81
2023-05-01T21:02:49.907Z,100876.34
2023-05-01T21:04:51.567Z,100879.00
2023-05-01T21:06:53.028Z,100878.03
2023-05-01T21:08:54.696Z,100873.28
2023-05-01T21:10:56.453Z,100860.16
2023-05-01T21:12:57.974Z,100873.00
2023-05-01T21:14:59.397Z,100870.47
2023-05-01T21:17:01.055Z,100857.09
2023-05-01T21:19:02.513Z,100860.00
2023-05-01T21:21:04.078Z,100870.72
2023-05-01T21:23:05.664Z,100879.28
2023-05-01T21:25:08.357Z,100860.69
2023-05-01T21:27:09.794Z,100873.78
2023-05-01T21:29:11.650Z,100873.78
2023-05-01T21:31:13.505Z,100870.19
2023-05-01T21:33:15.952Z,100871.31
2023-05-01T21:35:20.602Z,100856.66
2023-05-01T21:37:22.229Z,100858.69
2023-05-01T21:39:24.275Z,100862.28
2023-05-01T21:41:26.059Z,100854.72
2023-05-01T21:43:27.609Z,100867.69
2023-05-01T21:45:29.077Z,100873.28
2023-05-01T21:47:36.322Z,100871.31
2023-05-01T21:49:39.500Z,100873.97
2023-05-01T21:51:40.950Z,100872.28
2023-05-01T21:53:42.439Z,100853.19
2023-05-01T21:55:45.792Z,100878.41
2023-05-01T21:57:47.302Z,100880.59
2023-05-01T21:59:48.876Z,100881.28
2023-05-01T22:01:50.281Z,100879.25
2023-05-01T22:03:51.786Z,100876.72
2023-05-01T22:05:55.222Z,100875.75
2023-05-01T22:07:56.768Z,100867.50
2023-05-01T22:09:58.372Z,100861.50
2023-05-01T22:12:00.123Z,100843.78
2023-05-01T22:14:01.580Z,100851.16
2023-05-01T22:16:03.067Z,100863.09
2023-05-01T22:18:04.614Z,100869.78
2023-05-01T22:20:08.360Z,100866.84
2023-05-01T22:22:09.832Z,100867.13
2023-05-01T22:24:11.380Z,100857.03
2023-05-01T22:26:12.852Z,100866.53
2023-05-01T22:28:15.942Z,100857.88
2023-05-01T22:30:19.231Z,100844.50
2023-05-01T22:32:20.674Z,100859.88
2023-05-01T22:34:22.453Z,100855.38
2023-05-01T22:36:23.987Z,100841.41
2023-05-01T22:38:25.377Z,100860.28
2023-05-01T22:40:26.886Z,100857.88
2023-05-01T22:42:28.454Z,100864.72
2023-05-01T22:44:29.962Z,100853.13
2023-05-01T22:46:31.543Z,100854.78
2023-05-01T22:48:33.093Z,100853.50
2023-05-01T22:50:34.488Z,100823.72
2023-05-01T22:52:36.064Z,100852.13
2023-05-01T22:54:37.748Z,100840.81
2023-05-01T22:56:39.130Z,100822.91
2023-05-01T22:58:40.711Z,100840.63
2023-05-01T23:00:42.276Z,100830.66
2023-05-01T23:02:43.858Z,100842.13
2023-05-01T23:04:45.557Z,100837.25
2023-05-01T23:06:47.359Z,100833.25
2023-05-01T23:08:51.846Z,100814.09
2023-05-01T23:10:53.343Z,100829.41
2023-05-01T23:12:54.813Z,100823.44
2023-05-01T23:14:56.221Z,100808.69
2023-05-01T23:16:57.774Z,100800.63
2023-05-01T23:18:59.243Z,100806.50
2023-05-01T23:21:00.644Z,100820.13
2023-05-01T23:23:02.232Z,100820.38